x

Portland 12 Nm Southeast Of Portland,me (44007) Wave Buoy

10:50am - Mon 23rd Oct 2017 All times are EDT. -4 hours from GMT.

  • Sig Wave height 2.0ft
  • Swell Direction
  • Peak Period 9s
  • Average Period 6s
  • Wind
    7mph, 9mph gusts
  • Sea Temp 55°f
  • Air Temp 54°f
  • Sea Pressure 1028.1mb
  • Portland 12 Nm Southeast Of Portland,me
  • Portland 12 Nm Southeast Of Portland,me

More Historic Weather Station data

Upgrade to MSW Pro to gain access to the past 30 days of data for over 8000 Wavebouys and Weather Stations around the globe.

Join

Comparision Forecast

View Surf forecast
   
Mon 10/23 10:50am 2ft 9s 6s 7 9 mph 1028.1mb 55f 54f
9:50am 2ft 8s 5s 11 13 mph 1029mb 55f 53f
8:50am 1.6ft 9s 5s 9 11 mph 1029mb 55f 53f
7:50am 1.6ft 9s 5s 4 7 mph 1028.6mb 55f 53f
6:50am 1.6ft 9s 5s 4 4 mph 1028.3mb 55f 53f
5:50am 1.6ft 9s 5s 4 4 mph 1028.7mb 55f 53f
4:50am 1.6ft 9s 4s 4 7 mph 1028.6mb 55f 53f
3:50am 1.6ft 10s 4s 2 4 mph 1028.5mb 55f 53f
2:50am 1.6ft 10s 4s 4 7 mph 1028.7mb 55f 53f
1:50am 1.6ft 11s 5s 7 9 mph 1029.1mb 55f 53f
12:50am 2ft 10s 4s 4 4 mph 1029.4mb 55f 54f
Sun 10/22 11:50pm 2ft 11s 4s 2 2 mph 1029.8mb 55f 54f
10:50pm 2.5ft 5s 4s  -  2 mph 1030.1mb 55f 54f
9:50pm 2.5ft 4s 4s 4 7 mph 1030.3mb 55f 54f
8:50pm 2.5ft 5s 4s 7 11 mph 1030.1mb 55f 54f
7:50pm 3ft 5s 4s 11 13 mph 1030.3mb 55f 55f
6:50pm 3ft 5s 4s 13 16 mph 1030.1mb 55f 55f
5:50pm 3ft 5s 4s 16 18 mph 1030.1mb 55f 55f
4:50pm 3.5ft 5s 4s 16 18 mph 1030.1mb 55f 55f
3:50pm 3ft 4s 4s 16 20 mph 1029.7mb 55f 55f
2:50pm 3ft 4s 4s 18 20 mph 1029.6mb 55f 55f
1:50pm 2.5ft 4s 4s 18 22 mph 1029.9mb 55f 55f
12:50pm 2.5ft 4s 4s 18 20 mph 1030.2mb 55f 55f
11:50am 2.5ft 4s 4s 16 18 mph 1030.6mb 55f 55f
10:50am 2ft 10s 4s 13 16 mph 1030.4mb 55f 55f
9:50am 2ft 3s 4s 11 13 mph 1030.6mb 55f 53f
8:50am 1.6ft 9s 4s 9 9 mph 1030.5mb 55f 54f
7:50am 1.3ft 9s 4s 11 13 mph 1029.5mb 55f 55f
6:50am 1.3ft 10s 5s 11 13 mph 1028.4mb 55f 54f
5:50am 1.3ft 9s 5s 9 11 mph 1027.8mb 55f 54f
4:50am 1ft 9s 5s 9 11 mph 1027.2mb 55f 54f
3:50am 1.3ft 4s 5s 9 9 mph 1026.9mb 55f 54f
2:50am 1ft 9s 5s 7 9 mph 1026.2mb 55f 55f
1:50am 1ft 10s 5s 7 7 mph 1026.1mb 55f 55f
12:50am 1ft 9s 5s 7 7 mph 1026mb 55f 55f
Sat 10/21 11:50pm 1.3ft 8s 5s 4 4 mph 1025.9mb 55f 55f
10:50pm 1.3ft 8s 5s 4 4 mph 1025.7mb 55f 55f
8:50pm 1.3ft 8s 4s 4 4 mph 1025.3mb 55f 56f
7:50pm 1.3ft 8s 4s 4 4 mph 1025mb 55f 57f
6:50pm 1.3ft 8s 4s 4 4 mph 1024.8mb 55f 57f
5:50pm 1.3ft 8s 4s 4 4 mph 1024.2mb 56f 57f
4:50pm 1.3ft 9s 4s 2 2 mph 1023.7mb 56f 59f
3:50pm 1.3ft 8s 4s 7 9 mph 1023.3mb 56f 58f
2:50pm 1ft 9s 4s 7 9 mph 1023.1mb 56f 58f
1:50pm 1.3ft 9s 4s 16 18 mph 1022.9mb 56f 58f
12:50pm 1ft 9s 6s 11 13 mph 1023.1mb 56f 57f
11:50am 1.3ft 8s 6s 9 11 mph 1023.7mb 55f 57f
10:50am 1.3ft 7s 7s 7 9 mph 1023.8mb 55f 56f
9:50am 1.3ft 8s 6s 7 7 mph 1024.3mb 55f 56f
8:50am 1.3ft 8s 6s 7 7 mph 1024mb 54f 55f
7:50am 1ft 8s 6s 4 7 mph 1023.4mb 54f 55f
6:50am 1ft 8s 7s 9 9 mph 1022.9mb 54f 55f
5:50am 1ft 9s 7s 9 9 mph 1022.5mb 54f 54f
4:50am 1ft 8s 7s 7 7 mph 1021.9mb 54f 55f
3:50am 1ft 9s 7s 7 7 mph 1021.2mb 54f 55f
2:50am 1ft 9s 7s 4 4 mph 1020.8mb 54f 54f
1:50am 1ft 9s 6s 7 9 mph 1020.8mb 54f 55f
12:50am 1ft 9s 7s 7 9 mph 1020.2mb 54f 56f
Fri 10/20 11:50pm 1.3ft 10s 7s 7 7 mph 1019.7mb 54f 57f
10:50pm 1.3ft 8s 5s 7 9 mph 1019.2mb 54f 59f
9:50pm 1.6ft 9s 5s 9 11 mph 1018.4mb 54f 60f
8:50pm 1.6ft 9s 6s 11 13 mph 1017.6mb 55f 59f
7:50pm 1.3ft 8s 5s 16 20 mph 1016.6mb 55f 62f
6:50pm 1.3ft 9s 5s 11 11 mph 1016.1mb 55f 62f
5:50pm 1.3ft 8s 4s 9 9 mph 1015.1mb 56f 62f
4:50pm 1.3ft 9s 5s 11 13 mph 1014.1mb 56f 64f
3:50pm 1.6ft 9s 5s 2 4 mph 1013.9mb 57f 61f
2:50pm 1.6ft 9s 5s 7 11 mph 1013.6mb 57f 59f
1:50pm 2ft 9s 5s 4 4 mph 1013.6mb 57f 60f
12:50pm 2ft 8s 5s 4 7 mph 1014.4mb 56f 59f
11:50am 2.5ft 8s 5s 2 2 mph 1015.1mb 55f 60f
10:50am 2.5ft 5s 5s 7 7 mph 1015.5mb 54f 57f
9:50am 2.5ft 6s 5s 9 9 mph 1016.1mb 54f 56f
8:50am 3ft 6s 5s 11 11 mph 1015.7mb 54f 55f
7:50am 3ft 6s 5s 11 13 mph 1015.1mb 54f 55f
6:50am 3.5ft 6s 5s 9 11 mph 1014.4mb 54f 55f
5:50am 3.5ft 5s 5s 11 13 mph 1013.6mb 54f 55f
4:50am 3.5ft 5s 5s 11 13 mph 1013mb 54f 56f
3:50am 3.5ft 6s 5s 13 16 mph 1012.7mb 54f 56f
2:50am 4ft 6s 5s 16 16 mph 1012.1mb 55f 57f
1:50am 4.5ft 6s 5s 16 18 mph 1012.3mb 55f 56f
12:50am 5ft 6s 5s 16 20 mph 1012.3mb 55f 57f
Thu 10/19 11:50pm 5ft 6s 5s 18 20 mph 1012.3mb 55f 58f
10:50pm 5ft 7s 5s 20 22 mph 1012.5mb 55f 58f
9:50pm 5ft 7s 5s 22 27 mph 1012.8mb 55f 59f
8:50pm 5ft 5s  -  22 27 mph 1012.3mb 55f 59f
7:50pm 5ft 5s 5s 25 29 mph 1012.4mb 55f 60f
6:50pm 4.5ft 5s 4s 25 29 mph 1012.7mb 55f 60f
5:50pm 4.5ft 5s 4s 22 27 mph 1013.2mb 55f 60f
4:50pm 4ft 5s 4s 20 25 mph 1013.5mb 55f 59f